Chebeague Island, Maine
Current Conditions -  °F | °C
As of 11:51 AM on Sunday 21 Dec 2014 (Local Time) from KPWM Reporting Station
Light Snow Light Snow  
Wind Chill: 22°   Ceiling: 7000
Heat Index: 30°   Visibility: 9mi
Dew Point: 23°   Wind: 9mph
Humidity: 75%   Direction: 330°NNW
Pressure: 30.34"   Gusts: NA
Location:  43.74°N, 70.11°W
Report Text: KPWM 211651Z 33008KT 9SM -SN SCT047 OVC070 M01/M05 A3034 RMK AO2 SLP275 P0000 T10111050
Loading
Personal Weather Stations






























Interactive Weather Map New forecast layout! Learn more

10-Day Weather Forecast

Advertisements
Track Severe Weather on mobile